Time;durP1;ratioP1;P1;durP2;ratioP2;P2;SDS_P1;SDS_P2;PMS_P1;PMS_P2;Temp;Humidity;BMP_temperature;BMP_pressure;BME280_temperature;BME280_humidity;BME280_pressure;Samples;Min_cycle;Max_cycle;Signal;HPM_P1;HPM_P2
2022/06/16 00:00:47;;;;;;;6.80;6.05;;;12.50;99.90;;;;;;4868399;29;20500;-80
2022/06/16 00:03:16;;;;;;;5.93;4.78;;;12.50;99.90;;;;;;4905918;29;20051;-81
2022/06/16 00:05:43;;;;;;;6.25;5.05;;;12.60;99.90;;;;;;4900781;29;20040;-81
2022/06/16 00:08:19;;;;;;;8.18;5.18;;;12.60;99.90;;;;;;4905322;29;20050;-81
2022/06/16 00:13:42;;;;;;;8.45;5.60;;;12.60;99.90;;;;;;4910490;29;20047;-81
2022/06/16 00:16:09;;;;;;;6.75;5.20;;;12.60;99.90;;;;;;4903312;29;20479;-81
2022/06/16 00:18:41;;;;;;;7.25;5.20;;;12.50;99.90;;;;;;4891412;29;20047;-81
2022/06/16 00:21:08;;;;;;;8.13;5.25;;;12.50;99.90;;;;;;4926490;29;20138;-81
2022/06/16 00:23:41;;;;;;;7.72;5.47;;;12.50;99.90;;;;;;4896374;29;20058;-81
2022/06/16 00:26:27;;;;;;;7.00;4.55;;;12.50;99.90;;;;;;4904592;29;20039;-81
2022/06/16 00:28:53;;;;;;;8.10;4.53;;;12.40;99.90;;;;;;4904856;29;20039;-81
2022/06/16 00:31:21;;;;;;;5.43;4.72;;;12.30;99.90;;;;;;4904115;29;20043;-80
2022/06/16 00:33:50;;;;;;;6.95;4.80;;;12.40;99.90;;;;;;4906117;29;20047;-81
2022/06/16 00:36:19;;;;;;;7.15;4.70;;;12.40;99.90;;;;;;4882584;29;20421;-81
2022/06/16 00:39:01;;;;;;;5.32;4.30;;;12.40;99.90;;;;;;4877918;29;20085;-81
2022/06/16 00:41:35;;;;;;;6.25;4.20;;;12.40;99.90;;;;;;4885042;29;20036;-81
2022/06/16 00:44:40;;;;;;;5.60;4.30;;;12.50;99.90;;;;;;4892937;29;20078;-81
2022/06/16 00:47:09;;;;;;;6.75;4.28;;;12.40;99.90;;;;;;4903658;29;20047;-81
2022/06/16 00:49:40;;;;;;;5.25;4.10;;;12.30;99.90;;;;;;4887093;29;20483;-81
2022/06/16 00:52:27;;;;;;;5.93;4.22;;;12.30;99.90;;;;;;4893742;29;20546;-81
2022/06/16 00:55:17;;;;;;;6.57;3.47;;;12.30;99.90;;;;;;4896815;29;20051;-81
2022/06/16 00:57:52;;;;;;;5.80;4.20;;;12.40;99.90;;;;;;4872250;29;20036;-81
2022/06/16 01:00:31;;;;;;;7.75;4.53;;;12.30;99.90;;;;;;4912204;29;20036;-81
2022/06/16 01:03:04;;;;;;;7.53;4.28;;;12.20;99.90;;;;;;4908367;29;20071;-80
2022/06/16 01:05:46;;;;;;;5.22;4.50;;;12.10;99.90;;;;;;4911744;29;20075;-81
2022/06/16 01:08:17;;;;;;;6.82;4.03;;;12.10;99.90;;;;;;4881724;29;20040;-81
2022/06/16 01:11:05;;;;;;;7.50;4.57;;;12.20;99.90;;;;;;4919245;29;20048;-81
2022/06/16 01:13:53;;;;;;;6.75;3.90;;;12.20;99.90;;;;;;4912581;29;20055;-80
2022/06/16 01:16:39;;;;;;;5.38;3.92;;;12.20;99.90;;;;;;4887826;29;20036;-81
2022/06/16 01:19:55;;;;;;;5.70;4.07;;;12.20;99.90;;;;;;4907447;29;20044;-81
2022/06/16 01:22:45;;;;;;;7.53;4.28;;;12.20;99.90;;;;;;4882589;29;20083;-81
2022/06/16 01:25:46;;;;;;;6.53;4.05;;;12.10;99.90;;;;;;4916886;29;20048;-80
2022/06/16 01:28:25;;;;;;;7.05;4.25;;;12.10;99.90;;;;;;4911425;29;20055;-80
2022/06/16 01:31:39;;;;;;;8.13;5.32;;;12.10;99.90;;;;;;4879394;29;20061;-81
2022/06/16 01:34:39;;;;;;;8.65;4.75;;;12.00;99.90;;;;;;4864533;29;20052;-81
2022/06/16 01:37:32;;;;;;;8.15;5.05;;;11.90;99.90;;;;;;4919433;29;20126;-81
2022/06/16 01:40:28;;;;;;;8.85;4.72;;;11.80;99.90;;;;;;4904458;29;20054;-81
2022/06/16 01:42:58;;;;;;;7.88;4.90;;;11.80;99.90;;;;;;4895078;29;20040;-81
2022/06/16 01:45:51;;;;;;;9.18;5.38;;;11.70;99.90;;;;;;4906279;29;20153;-80
2022/06/16 01:48:22;;;;;;;7.95;5.10;;;11.70;99.90;;;;;;4912749;29;20126;-81
2022/06/16 01:51:24;;;;;;;6.40;4.70;;;11.80;99.90;;;;;;4880533;29;20057;-80
2022/06/16 01:54:15;;;;;;;7.00;4.40;;;11.80;99.90;;;;;;4875123;29;20277;-81
2022/06/16 01:56:57;;;;;;;7.55;5.05;;;11.80;99.90;;;;;;4873993;29;20513;-81
2022/06/16 01:59:53;;;;;;;7.80;4.72;;;11.80;99.90;;;;;;4880362;29;20135;-81
2022/06/16 02:02:24;;;;;;;8.68;4.85;;;11.80;99.90;;;;;;4884166;29;20037;-81
2022/06/16 02:05:09;;;;;;;8.30;4.85;;;11.70;99.90;;;;;;4900362;29;20136;-81
2022/06/16 02:07:52;;;;;;;7.78;4.65;;;11.70;99.90;;;;;;4865121;29;20518;-81
2022/06/16 02:10:27;;;;;;;6.30;4.97;;;11.60;99.90;;;;;;4899172;29;20036;-81
2022/06/16 02:13:04;;;;;;;6.60;5.32;;;11.60;99.90;;;;;;4887081;29;20044;-81
2022/06/16 02:15:43;;;;;;;8.57;4.88;;;11.50;99.90;;;;;;4897797;29;20036;-81
2022/06/16 02:18:16;;;;;;;8.75;5.50;;;11.40;99.90;;;;;;4912258;29;20388;-81
2022/06/16 02:21:00;;;;;;;5.70;4.60;;;11.30;99.90;;;;;;4863829;29;20040;-80
2022/06/16 02:23:41;;;;;;;6.03;5.10;;;11.20;99.90;;;;;;4904992;29;20051;-81
2022/06/16 02:26:16;;;;;;;7.03;4.97;;;11.10;99.90;;;;;;4899009;29;20028;-81
2022/06/16 02:28:53;;;;;;;7.10;4.82;;;11.10;99.90;;;;;;4896601;29;20079;-80
2022/06/16 02:31:57;;;;;;;7.30;4.95;;;11.00;99.90;;;;;;4868484;29;20056;-81
2022/06/16 02:35:09;;;;;;;6.53;4.85;;;10.90;99.90;;;;;;4877443;29;20044;-81
2022/06/16 02:37:57;;;;;;;7.05;5.30;;;10.70;99.90;;;;;;4886161;29;20511;-81
2022/06/16 02:40:47;;;;;;;7.57;5.70;;;10.60;99.90;;;;;;4885601;29;20139;-81
2022/06/16 02:43:31;;;;;;;6.38;5.10;;;10.60;99.90;;;;;;4893078;29;20047;-81
2022/06/16 02:46:22;;;;;;;7.60;5.68;;;10.50;99.90;;;;;;4921166;29;21092;-81
2022/06/16 02:49:11;;;;;;;7.03;5.80;;;10.40;99.90;;;;;;4877115;29;20050;-81
2022/06/16 02:51:42;;;;;;;7.35;5.38;;;10.40;99.90;;;;;;4877220;29;20111;-80
2022/06/16 02:54:29;;;;;;;8.30;5.68;;;10.30;99.90;;;;;;4897153;29;20087;-80
2022/06/16 02:57:15;;;;;;;7.95;5.78;;;10.20;99.90;;;;;;4897899;29;20039;-81
2022/06/16 03:00:07;;;;;;;10.02;6.93;;;10.20;99.90;;;;;;4920771;29;20044;-80
2022/06/16 03:02:59;;;;;;;;;;;;;;;;;;;;;
2022/06/16 03:05:41;;;;;;;6.95;6.05;;;10.10;99.90;;;;;;4909673;29;20040;-81
2022/06/16 03:08:09;;;;;;;10.02;6.10;;;10.00;99.90;;;;;;4883264;29;20048;-80
2022/06/16 03:10:58;;;;;;;6.55;5.88;;;9.90;99.90;;;;;;4907860;29;20126;-80
2022/06/16 03:13:51;;;;;;;10.13;6.95;;;9.90;99.90;;;;;;4892224;29;20040;-81
2022/06/16 03:16:38;;;;;;;8.05;6.65;;;10.00;99.90;;;;;;4906086;29;20298;-81
2022/06/16 03:19:22;;;;;;;8.48;6.60;;;9.80;99.90;;;;;;4919620;29;20047;-81
2022/06/16 03:21:56;;;;;;;10.60;7.13;;;9.80;99.90;;;;;;4898917;29;20086;-81
2022/06/16 03:24:27;;;;;;;9.68;7.20;;;9.70;99.90;;;;;;4887761;29;20102;-80
2022/06/16 03:26:59;;;;;;;8.70;7.10;;;9.70;99.90;;;;;;4896912;29;20043;-80
2022/06/16 03:29:28;;;;;;;9.52;7.32;;;9.60;99.90;;;;;;4893948;29;20050;-81
2022/06/16 03:31:55;;;;;;;9.23;7.50;;;9.60;99.90;;;;;;4900512;29;20043;-80
2022/06/16 03:34:24;;;;;;;11.70;8.15;;;9.50;99.90;;;;;;4880670;29;20068;-81
2022/06/16 03:36:51;;;;;;;10.15;8.32;;;9.60;99.90;;;;;;4912868;29;20047;-81
2022/06/16 03:39:17;;;;;;;8.82;7.40;;;9.50;99.90;;;;;;4884363;29;20492;-80
2022/06/16 03:41:46;;;;;;;9.98;7.28;;;9.50;99.90;;;;;;4871586;29;20053;-81
2022/06/16 03:44:15;;;;;;;8.82;7.60;;;9.50;99.90;;;;;;4871048;29;20077;-81
2022/06/16 03:46:52;;;;;;;9.82;8.02;;;9.50;99.90;;;;;;4892875;29;20043;-80
2022/06/16 03:49:21;;;;;;;11.50;8.50;;;9.40;99.90;;;;;;4904107;29;20044;-81
2022/06/16 03:52:00;;;;;;;12.50;8.55;;;9.40;99.90;;;;;;4887722;29;20076;-81
2022/06/16 03:54:29;;;;;;;12.13;8.82;;;9.40;99.90;;;;;;4886013;29;20078;-80
2022/06/16 03:57:05;;;;;;;11.02;8.27;;;9.40;99.90;;;;;;4896312;29;20039;-80
2022/06/16 03:59:36;;;;;;;10.85;9.02;;;9.50;99.90;;;;;;4899417;29;20060;-81
2022/06/16 04:02:05;;;;;;;12.82;9.45;;;9.60;99.90;;;;;;4900185;29;20368;-81
2022/06/16 04:04:38;;;;;;;12.90;9.40;;;9.50;99.90;;;;;;4873964;29;20071;-81
2022/06/16 04:07:15;;;;;;;10.98;9.75;;;9.60;99.90;;;;;;4907755;29;20422;-81
2022/06/16 04:09:49;;;;;;;12.18;9.75;;;9.70;99.90;;;;;;4866468;29;20048;-81
2022/06/16 04:12:22;;;;;;;14.57;9.82;;;9.80;99.90;;;;;;4880058;29;20061;-81
2022/06/16 04:15:02;;;;;;;10.93;9.20;;;9.90;99.90;;;;;;4873575;29;20415;-80
2022/06/16 04:17:31;;;;;;;12.02;10.45;;;10.10;99.90;;;;;;4911076;29;20052;-80
2022/06/16 04:20:12;;;;;;;11.70;10.07;;;10.20;99.90;;;;;;4868078;29;20048;-81
2022/06/16 04:22:54;;;;;;;12.07;10.52;;;10.30;99.90;;;;;;4868038;29;20392;-81
2022/06/16 04:25:44;;;;;;;15.40;10.25;;;10.40;99.90;;;;;;4899099;29;20418;-81
2022/06/16 04:28:18;;;;;;;12.10;9.93;;;10.50;99.90;;;;;;4904922;29;20099;-81
2022/06/16 04:30:53;;;;;;;10.82;8.80;;;10.60;99.90;;;;;;4889567;29;20507;-81
2022/06/16 04:33:48;;;;;;;12.23;9.63;;;10.70;99.90;;;;;;4897128;29;20111;-81
2022/06/16 04:36:25;;;;;;;12.73;9.65;;;10.80;99.90;;;;;;4912007;29;20487;-81
2022/06/16 04:42:10;;;;;;;13.52;8.90;;;10.90;99.90;;;;;;4895168;29;20107;-81
2022/06/16 04:44:49;;;;;;;11.68;8.63;;;10.90;99.90;;;;;;4879572;29;20506;-81
2022/06/16 04:47:28;;;;;;;10.75;8.82;;;11.00;99.90;;;;;;4919470;29;20036;-81
2022/06/16 04:50:18;;;;;;;10.43;8.73;;;11.00;99.90;;;;;;4934471;29;20115;-81
2022/06/16 04:52:53;;;;;;;12.07;7.90;;;11.10;99.90;;;;;;4888594;29;20106;-81
2022/06/16 04:55:21;;;;;;;10.23;8.20;;;11.10;99.90;;;;;;4890425;29;20399;-81
2022/06/16 04:58:04;;;;;;;9.82;8.05;;;11.20;99.90;;;;;;4877440;29;20036;-80
2022/06/16 05:00:38;;;;;;;10.35;8.13;;;11.10;99.90;;;;;;4896902;29;20435;-81
2022/06/16 05:03:06;;;;;;;9.45;8.45;;;11.20;99.90;;;;;;4892730;29;20051;-81
2022/06/16 05:05:33;;;;;;;10.27;8.52;;;11.20;99.90;;;;;;4892855;29;20036;-81
2022/06/16 05:07:59;;;;;;;12.18;8.93;;;11.30;99.90;;;;;;4886991;29;20402;-81
2022/06/16 05:10:25;;;;;;;10.98;9.07;;;11.40;99.90;;;;;;4877244;29;20139;-81
2022/06/16 05:12:56;;;;;;;14.13;8.90;;;11.40;99.90;;;;;;4878987;29;20037;-81
2022/06/16 05:15:38;;;;;;;9.50;7.85;;;11.60;99.90;;;;;;4899464;29;20102;-81
2022/06/16 05:18:21;;;;;;;10.95;8.38;;;11.70;99.90;;;;;;4885661;29;20115;-81
2022/06/16 05:21:12;;;;;;;12.60;9.00;;;11.90;99.90;;;;;;4878073;29;20408;-80
2022/06/16 05:23:46;;;;;;;10.25;8.30;;;11.90;99.90;;;;;;4882202;29;20418;-81
2022/06/16 05:26:15;;;;;;;10.68;8.02;;;12.00;99.90;;;;;;4882731;29;20036;-81
2022/06/16 05:29:41;;;;;;;8.77;7.88;;;12.10;99.90;;;;;;4887866;29;20123;-83
2022/06/16 05:36:18;;;;;;;10.15;7.47;;;12.30;99.90;;;;;;4902923;29;20051;-82
2022/06/16 05:39:12;;;;;;;12.55;8.15;;;12.40;99.90;;;;;;4863703;29;20089;-82
2022/06/16 05:41:42;;;;;;;11.50;8.00;;;12.50;99.90;;;;;;4881602;29;20566;-82
2022/06/16 05:48:36;;;;;;;9.77;7.45;;;12.80;99.90;;;;;;4900916;29;20075;-82
2022/06/16 06:03:05;;;;;;;6.70;5.68;;;14.30;99.90;;;;;;5179263;23;20070;-83
2022/06/16 06:16:41;;;;;;;6.40;4.03;;;14.30;99.90;;;;;;4952699;28;20039;-80
2022/06/16 06:19:31;;;;;;;6.93;4.00;;;14.30;99.90;;;;;;4940394;28;20526;-79
2022/06/16 06:22:26;;;;;;;;;;;;;;;;;;;;;
2022/06/16 06:25:19;;;;;;;7.25;4.05;;;14.20;99.90;;;;;;4941012;28;20051;-79
2022/06/16 06:27:51;;;;;;;6.50;4.32;;;14.20;99.90;;;;;;4933930;28;20070;-79
2022/06/16 06:30:36;;;;;;;9.02;4.60;;;14.20;99.90;;;;;;4931426;29;20043;-80
2022/06/16 06:33:17;;;;;;;5.35;3.47;;;14.20;99.90;;;;;;4937922;28;20041;-80
2022/06/16 06:36:01;;;;;;;5.85;3.90;;;14.20;99.90;;;;;;4950674;28;20039;-79
2022/06/16 06:38:37;;;;;;;4.78;3.10;;;14.30;99.90;;;;;;4948022;28;20046;-78
2022/06/16 06:41:19;;;;;;;6.50;3.72;;;14.40;99.90;;;;;;4947193;28;20062;-78
2022/06/16 06:44:52;;;;;;;4.53;3.40;;;14.50;99.90;;;;;;4946151;29;20037;-79
2022/06/16 06:48:11;;;;;;;4.03;3.15;;;14.60;99.90;;;;;;4953009;28;20126;-78
2022/06/16 06:50:46;;;;;;;6.55;3.08;;;14.70;99.90;;;;;;4949498;28;20058;-79
2022/06/16 06:57:22;;;;;;;5.25;3.10;;;14.90;99.90;;;;;;4922263;29;20423;-79
2022/06/16 07:00:36;;;;;;;3.55;2.35;;;15.00;99.90;;;;;;4878088;29;20124;-79
2022/06/16 07:03:52;;;;;;;3.60;1.90;;;15.10;99.90;;;;;;4890979;29;20052;-79
2022/06/16 07:06:51;;;;;;;4.03;1.70;;;15.10;99.90;;;;;;4889723;29;20074;-78
2022/06/16 07:10:03;;;;;;;4.45;2.00;;;15.20;99.90;;;;;;4875299;29;20573;-79
2022/06/16 07:17:41;;;;;;;3.50;1.60;;;15.40;99.90;;;;;;4960244;29;20055;-79
2022/06/16 07:21:17;;;;;;;1.60;1.35;;;15.60;99.90;;;;;;4916195;29;20199;-79
2022/06/16 07:24:53;;;;;;;2.05;1.20;;;15.70;99.90;;;;;;4952656;28;20050;-79
2022/06/16 07:28:50;;;;;;;;;;;;;;;;;;;;;
2022/06/16 07:32:13;;;;;;;2.60;1.13;;;16.00;99.90;;;;;;4955595;28;20051;-79
2022/06/16 07:35:25;;;;;;;;;;;16.20;99.90;;;;;;4944849;29;20043;-79
2022/06/16 07:39:16;;;;;;;2.25;1.13;;;16.30;99.90;;;;;;4945862;29;19918;-80
2022/06/16 07:42:46;;;;;;;1.20;0.85;;;16.70;99.90;;;;;;4865414;29;20088;-80
2022/06/16 07:45:51;;;;;;;2.13;0.82;;;17.40;99.90;;;;;;4869537;29;20052;-80
2022/06/16 07:49:22;;;;;;;2.50;0.90;;;18.10;99.90;;;;;;4942925;28;20054;-79
2022/06/16 07:53:09;;;;;;;2.63;1.00;;;18.80;99.90;;;;;;4962515;29;20417;-80
2022/06/16 07:57:23;;;;;;;1.55;1.02;;;19.70;99.90;;;;;;4914485;29;20069;-80
2022/06/16 08:01:24;;;;;;;2.53;1.00;;;20.50;99.90;;;;;;4848236;29;20126;-81
2022/06/16 08:13:26;;;;;;;;;;;;;;;;;;;;;
2022/06/16 08:20:50;;;;;;;2.50;1.10;;;23.70;91.80;;;;;;4739037;30;20044;-81
2022/06/16 08:24:42;;;;;;;;;;;;;;;;;;;;;
2022/06/16 08:28:09;;;;;;;2.28;1.20;;;24.30;88.20;;;;;;4657250;30;20057;-80
2022/06/16 08:42:30;;;;;;;2.03;1.20;;;25.60;74.80;;;;;;4738153;30;20506;-81
2022/06/16 08:53:52;;;;;;;2.65;1.15;;;26.30;69.30;;;;;;4775690;30;20078;-80
2022/06/16 09:01:05;;;;;;;1.48;0.90;;;26.10;65.10;;;;;;4961875;28;20042;-81
2022/06/16 09:38:08;;;;;;;6.90;1.50;;;28.00;56.70;;;;;;4827536;29;20057;-81
2022/06/16 09:45:22;;;;;;;1.90;1.35;;;28.30;59.50;;;;;;4828751;29;20148;-81
2022/06/16 09:56:14;;;;;;;3.92;1.90;;;28.80;56.40;;;;;;4856310;29;20037;-81
2022/06/16 10:03:46;;;;;;;2.78;1.70;;;28.70;54.70;;;;;;4826309;29;20045;-80
2022/06/16 10:07:25;;;;;;;2.50;1.40;;;28.80;53.00;;;;;;4824013;29;20046;-81
2022/06/16 10:18:51;;;;;;;2.58;1.25;;;28.90;56.10;;;;;;4850164;29;20388;-81
2022/06/16 10:25:58;;;;;;;2.10;1.48;;;29.20;52.00;;;;;;4800510;29;20046;-81
2022/06/16 10:33:00;;;;;;;2.50;1.67;;;29.40;53.50;;;;;;4926063;29;20063;-81
2022/06/16 10:53:09;;;;;;;2.10;1.50;;;30.20;52.60;;;;;;4853981;29;20053;-81
2022/06/16 10:56:57;;;;;;;2.05;1.30;;;30.30;54.20;;;;;;4789183;29;20063;-81
2022/06/16 11:00:23;;;;;;;2.67;1.58;;;30.40;52.70;;;;;;4836667;29;20099;-80
2022/06/16 11:03:43;;;;;;;3.13;1.70;;;30.30;51.40;;;;;;4855393;28;20036;-80
2022/06/16 11:06:26;;;;;;;3.17;1.65;;;30.30;51.40;;;;;;4959566;29;20097;-80
2022/06/16 11:09:54;;;;;;;2.85;1.70;;;30.20;50.20;;;;;;4932792;28;20046;-81
2022/06/16 11:17:44;;;;;;;3.72;2.05;;;30.20;50.80;;;;;;4896353;29;20097;-80
2022/06/16 11:21:32;;;;;;;3.17;2.10;;;29.40;50.30;;;;;;4883231;29;20056;-81
2022/06/16 11:25:11;;;;;;;2.22;1.80;;;29.00;52.90;;;;;;4866554;29;20057;-80
2022/06/16 11:29:10;;;;;;;2.08;1.83;;;29.10;55.20;;;;;;4840349;29;20048;-81
2022/06/16 11:32:40;;;;;;;2.65;1.63;;;29.50;54.10;;;;;;4843817;29;20195;-80
2022/06/16 11:40:18;;;;;;;3.42;1.65;;;30.30;50.30;;;;;;4866696;29;20117;-82
2022/06/16 11:51:15;;;;;;;2.45;1.75;;;30.80;51.90;;;;;;5009191;23;20094;-81
2022/06/16 11:54:38;;;;;;;3.45;1.85;;;31.00;52.20;;;;;;4934548;29;20518;-81
2022/06/16 11:57:47;;;;;;;;;;;;;;;;;;;;;
2022/06/16 12:00:50;;;;;;;2.08;1.70;;;30.60;51.50;;;;;;4930797;29;19924;-81
2022/06/16 12:03:41;;;;;;;3.63;1.73;;;30.20;52.70;;;;;;4906859;29;20670;-80
2022/06/16 12:06:28;;;;;;;2.75;2.08;;;30.30;51.70;;;;;;4905201;29;20039;-80
2022/06/16 12:09:33;;;;;;;2.83;2.35;;;30.50;49.60;;;;;;4905575;29;20031;-80
2022/06/16 12:12:05;;;;;;;3.15;1.90;;;30.10;49.40;;;;;;4898709;29;20048;-81
2022/06/16 12:15:27;;;;;;;4.05;2.25;;;29.60;51.10;;;;;;4920316;29;20463;-81
2022/06/16 12:18:35;;;;;;;3.17;1.60;;;29.40;53.60;;;;;;4861138;29;20528;-81
2022/06/16 12:21:50;;;;;;;3.00;1.70;;;29.70;55.80;;;;;;4871302;29;20060;-81
2022/06/16 12:24:50;;;;;;;2.13;1.55;;;30.20;54.90;;;;;;4888304;29;20055;-81
2022/06/16 12:27:58;;;;;;;2.47;2.10;;;30.50;53.50;;;;;;4901742;29;20194;-81
2022/06/16 12:30:46;;;;;;;3.22;2.20;;;30.80;53.00;;;;;;4848446;29;20056;-80
2022/06/16 12:33:45;;;;;;;3.33;2.05;;;31.20;51.30;;;;;;4870765;29;20060;-81
2022/06/16 12:36:23;;;;;;;2.45;1.80;;;31.20;51.40;;;;;;4848232;29;20394;-81
2022/06/16 12:39:23;;;;;;;3.38;1.98;;;31.20;50.70;;;;;;4854901;29;20037;-82
2022/06/16 12:42:28;;;;;;;3.70;2.05;;;31.00;52.60;;;;;;4914078;29;20075;-81
2022/06/16 12:56:30;;;;;;;3.25;2.25;;;30.30;49.70;;;;;;4931392;29;20423;-80
2022/06/16 12:59:16;;;;;;;3.63;2.13;;;29.50;49.90;;;;;;4904434;29;20107;-80
2022/06/16 13:01:53;;;;;;;6.13;2.45;;;28.90;50.90;;;;;;4891166;29;20086;-79
2022/06/16 13:04:34;;;;;;;3.40;2.10;;;28.50;49.70;;;;;;4894770;29;20043;-80
2022/06/16 13:07:10;;;;;;;2.75;2.30;;;28.20;52.30;;;;;;4903495;29;20032;-79
2022/06/16 13:09:43;;;;;;;3.28;2.10;;;27.80;52.00;;;;;;4909972;29;20042;-80
2022/06/16 13:12:25;;;;;;;3.45;2.05;;;27.20;52.70;;;;;;4908546;29;20411;-80
2022/06/16 13:15:44;;;;;;;2.65;2.10;;;27.20;54.20;;;;;;4921110;29;20494;-80
2022/06/16 13:18:20;;;;;;;3.63;2.40;;;27.20;53.60;;;;;;4908445;29;20043;-80
2022/06/16 13:21:03;;;;;;;3.42;2.28;;;27.20;54.30;;;;;;4905360;29;20040;-79
2022/06/16 13:23:35;;;;;;;2.88;2.00;;;27.70;53.00;;;;;;4896540;29;20036;-80
2022/06/16 13:26:31;;;;;;;3.22;2.63;;;27.90;53.20;;;;;;4898385;29;20036;-79
2022/06/16 13:29:18;;;;;;;5.60;2.58;;;28.30;53.20;;;;;;4907858;29;20040;-80
2022/06/16 13:32:03;;;;;;;3.67;2.20;;;28.30;53.60;;;;;;4908794;29;20465;-80
2022/06/16 13:34:52;;;;;;;3.33;2.25;;;28.30;54.20;;;;;;4899382;29;20054;-80
2022/06/16 13:38:26;;;;;;;2.95;2.20;;;27.90;54.40;;;;;;4939645;29;20052;-79
2022/06/16 13:45:25;;;;;;;3.55;2.28;;;28.00;57.90;;;;;;4942033;29;20473;-81
2022/06/16 13:56:24;;;;;;;2.92;2.10;;;27.40;57.90;;;;;;4795443;29;20082;-80
2022/06/16 13:59:41;;;;;;;2.55;2.30;;;26.60;56.10;;;;;;4848287;29;20057;-80
2022/06/16 14:03:22;;;;;;;3.40;2.42;;;26.40;56.90;;;;;;4890943;29;20045;-80
2022/06/16 14:07:14;;;;;;;2.90;2.28;;;27.00;56.40;;;;;;4883886;29;20037;-80
2022/06/16 14:10:58;;;;;;;3.78;2.20;;;27.30;59.30;;;;;;4802528;29;20136;-81
2022/06/16 14:14:31;;;;;;;2.95;2.08;;;27.60;60.00;;;;;;4830398;29;20453;-79
2022/06/16 14:17:55;;;;;;;3.28;2.20;;;28.00;57.30;;;;;;4764468;29;20051;-80
2022/06/16 14:20:36;;;;;;;3.08;2.03;;;27.60;55.20;;;;;;4855069;29;20041;-80
2022/06/16 14:23:27;;;;;;;3.80;2.13;;;27.10;54.60;;;;;;4916722;29;20068;-81
2022/06/16 14:26:01;;;;;;;3.03;2.08;;;26.50;56.50;;;;;;4912356;29;20126;-81
2022/06/16 14:28:43;;;;;;;2.47;2.00;;;25.90;55.90;;;;;;4887170;29;20037;-81
2022/06/16 14:31:21;;;;;;;3.43;2.20;;;25.40;56.40;;;;;;4880281;29;20083;-82
2022/06/16 14:34:49;;;;;;;5.10;2.40;;;24.90;57.70;;;;;;4909269;29;20043;-82
2022/06/16 14:37:25;;;;;;;3.20;2.30;;;25.00;57.70;;;;;;4908150;29;20040;-79
2022/06/16 14:40:29;;;;;;;2.78;2.13;;;25.00;57.00;;;;;;4899805;29;20095;-80
2022/06/16 14:43:07;;;;;;;3.90;2.67;;;25.20;58.70;;;;;;4879528;29;20479;-80
2022/06/16 14:45:50;;;;;;;2.13;1.85;;;25.70;57.20;;;;;;4923734;29;20046;-80
2022/06/16 14:48:37;;;;;;;3.55;2.40;;;26.30;58.60;;;;;;4896546;29;20126;-80
2022/06/16 14:51:19;;;;;;;2.88;1.88;;;26.50;57.60;;;;;;4904844;29;20054;-80
2022/06/16 14:54:02;;;;;;;3.03;2.30;;;26.40;56.60;;;;;;4922337;29;20569;-80
2022/06/16 14:56:45;;;;;;;3.15;2.13;;;26.30;55.80;;;;;;4904914;29;20098;-81
2022/06/16 14:59:23;;;;;;;3.20;1.80;;;26.50;57.20;;;;;;4915161;29;20080;-81
2022/06/16 15:02:09;;;;;;;4.25;2.30;;;26.60;57.00;;;;;;4904404;29;20136;-81
2022/06/16 15:05:10;;;;;;;4.07;2.40;;;26.70;57.80;;;;;;4885560;29;20075;-81
2022/06/16 15:07:47;;;;;;;3.70;2.10;;;26.40;58.40;;;;;;4850858;29;20052;-81
2022/06/16 15:10:29;;;;;;;3.60;2.08;;;26.00;58.00;;;;;;4902898;29;20045;-81
2022/06/16 15:13:01;;;;;;;4.03;2.22;;;25.70;59.20;;;;;;4922234;29;20044;-81
2022/06/16 15:15:36;;;;;;;2.70;2.05;;;25.50;59.50;;;;;;4905865;29;20048;-81
2022/06/16 15:18:13;;;;;;;3.55;2.17;;;25.30;59.00;;;;;;4900803;29;20051;-81
2022/06/16 15:20:47;;;;;;;2.20;1.98;;;25.10;59.90;;;;;;4907166;29;20071;-81
2022/06/16 15:23:28;;;;;;;2.83;2.45;;;24.80;61.30;;;;;;4904272;29;20864;-81
2022/06/16 15:26:24;;;;;;;4.72;2.05;;;24.60;62.20;;;;;;4921726;29;20047;-81
2022/06/16 15:29:17;;;;;;;4.88;2.58;;;24.30;64.10;;;;;;4905789;29;20062;-81
2022/06/16 15:32:03;;;;;;;4.20;2.25;;;24.10;64.70;;;;;;4908563;29;20071;-81
2022/06/16 15:37:38;;;;;;;4.55;2.95;;;23.90;63.90;;;;;;4910726;29;20510;-80
2022/06/16 15:40:17;;;;;;;3.85;2.45;;;23.70;63.00;;;;;;4928909;29;20043;-81
2022/06/16 15:43:04;;;;;;;2.80;2.50;;;23.50;64.10;;;;;;4910609;29;20079;-81
2022/06/16 15:46:09;;;;;;;3.65;2.38;;;23.30;63.70;;;;;;4920365;29;20130;-81
2022/06/16 15:48:45;;;;;;;3.88;2.30;;;23.10;67.20;;;;;;4924779;29;20043;-81
2022/06/16 15:51:38;;;;;;;2.63;2.10;;;22.90;66.50;;;;;;4907638;29;20131;-80
2022/06/16 15:54:25;;;;;;;3.58;2.92;;;22.70;67.10;;;;;;4909522;29;20123;-81
2022/06/16 16:00:24;;;;;;;2.58;2.20;;;22.60;67.60;;;;;;4868363;29;20135;-81
2022/06/16 16:03:19;;;;;;;5.05;2.40;;;22.60;67.60;;;;;;4890327;29;20107;-81
2022/06/16 16:06:01;;;;;;;5.68;2.78;;;22.50;68.60;;;;;;4910192;29;20130;-80
2022/06/16 16:08:33;;;;;;;4.20;2.63;;;22.50;68.00;;;;;;4900604;29;20070;-79
2022/06/16 16:11:20;;;;;;;5.18;2.38;;;22.30;66.90;;;;;;4907399;29;20062;-81
2022/06/16 16:14:14;;;;;;;3.63;2.70;;;22.20;67.00;;;;;;4894251;29;20492;-80
2022/06/16 16:17:04;;;;;;;3.47;2.00;;;22.10;67.80;;;;;;4924512;29;20046;-80
2022/06/16 16:19:33;;;;;;;2.95;2.50;;;22.00;69.40;;;;;;4898603;29;20040;-81
2022/06/16 16:22:26;;;;;;;3.45;2.55;;;22.00;70.70;;;;;;4910735;29;20071;-80
2022/06/16 16:25:09;;;;;;;4.15;2.47;;;22.00;70.00;;;;;;4884502;29;20059;-81
2022/06/16 16:27:56;;;;;;;3.72;2.40;;;21.90;71.00;;;;;;4890122;29;20384;-81
2022/06/16 16:30:44;;;;;;;2.72;2.00;;;22.00;72.80;;;;;;4906383;29;20675;-81
2022/06/16 16:34:00;;;;;;;4.00;2.15;;;22.10;74.40;;;;;;4893948;29;20054;-81
2022/06/16 16:37:22;;;;;;;3.08;1.98;;;22.30;76.20;;;;;;4889414;29;20100;-81
2022/06/16 16:43:00;;;;;;;4.80;2.85;;;22.20;78.00;;;;;;4881506;29;20051;-80
2022/06/16 16:55:17;;;;;;;3.28;2.30;;;22.10;76.90;;;;;;4834543;29;20098;-79
2022/06/16 16:57:48;;;;;;;3.85;2.35;;;22.10;77.90;;;;;;4887771;29;20450;-80
2022/06/16 17:00:41;;;;;;;3.72;2.63;;;22.00;79.10;;;;;;4906992;29;20048;-81
2022/06/16 17:03:48;;;;;;;2.30;2.10;;;22.10;83.30;;;;;;4886010;29;20036;-81
2022/06/16 17:06:49;;;;;;;2.85;2.13;;;22.00;82.60;;;;;;4884075;29;20498;-82
2022/06/16 17:09:54;;;;;;;5.00;2.60;;;22.00;84.80;;;;;;4901125;29;20048;-81
2022/06/16 17:13:37;;;;;;;4.13;2.30;;;22.00;85.00;;;;;;4884104;29;20061;-81
2022/06/16 17:24:12;;;;;;;4.28;3.03;;;22.20;88.30;;;;;;4843450;29;20053;-81
2022/06/16 17:27:01;;;;;;;;;;;;;;;;;;;;;
2022/06/16 17:30:23;;;;;;;4.05;3.13;;;22.00;87.80;;;;;;4808967;29;20085;-81
2022/06/16 17:33:02;;;;;;;5.85;3.00;;;21.90;87.40;;;;;;4799959;29;20108;-83
2022/06/16 17:36:40;;;;;;;4.90;3.08;;;21.80;88.60;;;;;;4791737;29;20055;-81
2022/06/16 17:47:51;;;;;;;5.18;2.60;;;21.90;90.50;;;;;;4822017;29;20079;-81
2022/06/16 17:51:07;;;;;;;5.22;2.83;;;22.00;89.20;;;;;;4812057;29;20050;-81
2022/06/16 18:02:17;;;;;;;;;;;;;;;;;;;;;
2022/06/16 18:21:18;;;;;;;;;;;;;;;;;;;;;
2022/06/16 18:31:17;;;;;;;5.53;3.40;;;21.80;88.30;;;;;;4959484;28;20070;-81
2022/06/16 18:34:45;;;;;;;5.55;3.28;;;21.80;89.30;;;;;;4936342;29;20123;-81
2022/06/16 18:37:56;;;;;;;5.65;3.50;;;21.60;88.80;;;;;;4957816;28;20047;-83
2022/06/16 18:41:28;;;;;;;3.88;2.80;;;21.30;88.90;;;;;;4888902;29;20112;-81
2022/06/16 18:44:35;;;;;;;3.65;3.15;;;21.00;90.10;;;;;;4910632;29;20059;-80
2022/06/16 18:51:13;;;;;;;4.00;3.10;;;20.40;90.40;;;;;;4974653;28;20465;-80
2022/06/16 18:54:43;;;;;;;3.70;3.25;;;20.20;90.50;;;;;;4889714;28;20064;-80
2022/06/16 19:01:32;;;;;;;3.47;2.70;;;19.60;91.80;;;;;;4940316;23;20471;-87
2022/06/16 19:03:57;;;;;;;4.80;3.30;;;19.40;91.90;;;;;;4922693;29;20363;-87
2022/06/16 19:06:25;;;;;;;4.30;3.67;;;19.20;91.50;;;;;;4939066;29;20038;-87
2022/06/16 19:08:50;;;;;;;3.67;2.80;;;19.10;91.60;;;;;;4939193;29;20050;-87
2022/06/16 19:11:18;;;;;;;4.18;3.25;;;18.90;92.00;;;;;;4923499;29;20039;-87
2022/06/16 19:13:45;;;;;;;4.10;3.47;;;18.80;92.90;;;;;;4920545;29;20039;-87
2022/06/16 19:16:11;;;;;;;4.13;3.20;;;18.70;93.70;;;;;;4916757;28;20042;-86
2022/06/16 19:18:44;;;;;;;5.22;3.67;;;18.50;94.50;;;;;;4923699;29;20044;-87
2022/06/16 19:21:16;;;;;;;4.47;3.90;;;18.30;95.00;;;;;;4921709;29;20062;-88
2022/06/16 19:23:55;;;;;;;5.78;3.80;;;18.20;95.40;;;;;;4922106;29;20050;-88
2022/06/16 19:26:23;;;;;;;4.75;3.70;;;18.10;95.80;;;;;;4924962;29;20477;-88
2022/06/16 19:28:49;;;;;;;4.50;3.15;;;18.00;96.00;;;;;;4937381;28;20043;-88
2022/06/16 19:31:19;;;;;;;4.22;3.50;;;17.90;96.10;;;;;;4954393;28;20873;-88
2022/06/16 19:33:45;;;;;;;3.58;3.10;;;17.80;96.50;;;;;;4922551;29;20035;-86
2022/06/16 19:36:11;;;;;;;4.82;3.70;;;17.70;96.90;;;;;;4922615;29;20126;-85
2022/06/16 19:38:46;;;;;;;4.28;3.40;;;17.60;97.30;;;;;;4938528;29;20251;-85
2022/06/16 19:41:19;;;;;;;5.03;3.80;;;17.50;97.90;;;;;;4922004;29;20564;-85